Time;durP1;ratioP1;P1;durP2;ratioP2;P2;SDS_P1;SDS_P2;PMS_P1;PMS_P2;Temp;Humidity;BMP_temperature;BMP_pressure;BME280_temperature;BME280_humidity;BME280_pressure;Samples;Min_cycle;Max_cycle;Signal;HPM_P1;HPM_P2
2023/04/09 00:00:49;;;;;;;26.37;17.93;;;2.60;99.90;;;;;;8340236;28;20210;-72
2023/04/09 00:04:50;;;;;;;31.07;20.03;;;2.60;99.90;;;;;;8339918;28;20186;-71
2023/04/09 00:08:51;;;;;;;34.47;21.80;;;2.50;1.00;;;;;;8338817;28;20243;-71
2023/04/09 00:12:52;;;;;;;31.73;20.30;;;2.50;99.90;;;;;;8338107;28;20189;-72
2023/04/09 00:16:59;;;;;;;31.07;21.83;;;2.40;1.00;;;;;;8340160;28;20182;-73
2023/04/09 00:21:02;;;;;;;33.43;21.17;;;2.40;1.00;;;;;;8340521;28;20190;-72
2023/04/09 00:25:03;;;;;;;36.70;23.03;;;2.30;99.90;;;;;;8355024;28;20189;-72
2023/04/09 00:29:04;;;;;;;41.13;22.87;;;2.30;42.50;;;;;;8336467;28;20212;-72
2023/04/09 00:33:08;;;;;;;36.00;23.30;;;2.20;1.00;;;;;;8338756;28;20204;-72
2023/04/09 00:37:09;;;;;;;31.77;20.60;;;2.20;1.00;;;;;;8341353;28;20343;-72
2023/04/09 00:41:10;;;;;;;33.17;21.77;;;2.20;98.00;;;;;;8340431;28;20213;-72
2023/04/09 00:45:18;;;;;;;31.10;20.23;;;2.20;99.90;;;;;;8340500;28;20182;-72
2023/04/09 00:49:19;;;;;;;30.13;19.37;;;2.20;99.90;;;;;;8334821;28;20207;-73
2023/04/09 00:53:20;;;;;;;32.87;22.67;;;2.30;99.90;;;;;;8336522;28;20315;-72
2023/04/09 00:57:21;;;;;;;34.57;20.27;;;2.40;99.90;;;;;;8339690;28;20201;-73
2023/04/09 01:01:22;;;;;;;36.73;22.80;;;2.40;99.90;;;;;;8337617;28;20185;-72
2023/04/09 01:05:49;;;;;;;35.07;22.23;;;2.50;99.90;;;;;;8330091;28;20183;-72
2023/04/09 01:10:19;;;;;;;35.30;22.57;;;2.50;1.00;;;;;;8329857;28;20308;-72
2023/04/09 01:14:29;;;;;;;33.57;22.30;;;2.50;1.00;;;;;;8328927;28;20278;-71
2023/04/09 01:18:33;;;;;;;34.33;22.27;;;2.60;99.90;;;;;;8335075;28;20184;-71
2023/04/09 01:22:52;;;;;;;32.00;21.07;;;2.60;99.90;;;;;;8340253;28;20187;-72
2023/04/09 01:27:05;;;;;;;31.37;19.87;;;2.60;99.90;;;;;;8333266;28;20255;-71
2023/04/09 01:31:16;;;;;;;32.13;21.13;;;2.60;1.00;;;;;;8349995;28;20263;-70
2023/04/09 01:35:24;;;;;;;35.00;21.93;;;2.50;99.90;;;;;;8354651;28;20191;-70
2023/04/09 01:39:26;;;;;;;34.43;22.33;;;2.50;1.00;;;;;;8347589;28;20208;-71
2023/04/09 01:43:32;;;;;;;33.53;23.37;;;2.50;1.00;;;;;;8341513;28;20224;-72
2023/04/09 01:47:34;;;;;;;33.20;21.83;;;2.50;1.00;;;;;;8339894;28;20301;-71
2023/04/09 01:51:35;;;;;;;36.07;22.93;;;2.50;99.90;;;;;;8336220;28;20226;-71
2023/04/09 01:55:39;;;;;;;35.37;21.73;;;2.40;1.00;;;;;;8338217;28;20193;-71
2023/04/09 01:59:40;;;;;;;35.30;22.10;;;2.40;99.90;;;;;;8340571;28;20194;-66
2023/04/09 02:03:55;;;;;;;32.00;20.97;;;2.30;1.00;;;;;;8340472;28;20205;-67
2023/04/09 02:08:00;;;;;;;33.33;20.40;;;2.30;99.90;;;;;;8349305;28;20206;-66
2023/04/09 02:12:04;;;;;;;30.30;21.53;;;2.30;16.90;;;;;;8340094;28;20261;-67
2023/04/09 02:16:14;;;;;;;33.17;22.00;;;2.20;1.00;;;;;;8339617;28;20193;-66
2023/04/09 02:20:18;;;;;;;33.43;21.10;;;2.20;1.00;;;;;;8334627;28;20194;-67
2023/04/09 02:24:39;;;;;;;36.07;22.40;;;2.20;1.00;;;;;;8332473;28;20194;-66
2023/04/09 02:28:45;;;;;;;35.73;21.00;;;2.20;99.90;;;;;;8340765;28;20217;-66
2023/04/09 02:32:49;;;;;;;33.63;21.63;;;2.20;14.20;;;;;;8339472;28;20194;-67
2023/04/09 02:36:50;;;;;;;32.70;20.13;;;2.20;99.90;;;;;;8341953;28;20190;-67
2023/04/09 02:40:51;;;;;;;30.80;20.37;;;2.20;99.90;;;;;;8335559;28;20190;-67
2023/04/09 02:44:52;;;;;;;31.20;20.43;;;2.30;99.90;;;;;;8342789;28;20184;-67
2023/04/09 02:48:53;;;;;;;31.37;19.70;;;2.30;99.90;;;;;;8337858;28;20213;-66
2023/04/09 02:52:54;;;;;;;33.53;21.40;;;2.30;99.90;;;;;;8339897;28;20206;-66
2023/04/09 02:56:55;;;;;;;28.53;19.93;;;2.30;99.90;;;;;;8338467;28;20209;-67
2023/04/09 03:00:56;;;;;;;28.57;19.23;;;2.30;99.90;;;;;;8336024;28;20194;-67
2023/04/09 03:05:04;;;;;;;26.77;16.97;;;2.30;99.90;;;;;;8339143;28;20190;-66
2023/04/09 03:09:05;;;;;;;28.40;18.57;;;2.30;99.90;;;;;;8338186;28;20211;-66
2023/04/09 03:13:06;;;;;;;28.73;18.13;;;2.30;99.90;;;;;;8336293;28;20201;-67
2023/04/09 03:17:10;;;;;;;26.90;19.07;;;2.30;99.90;;;;;;8332742;28;20194;-68
2023/04/09 03:21:10;;;;;;;30.67;19.47;;;2.30;64.80;;;;;;8336717;28;20186;-67
2023/04/09 03:25:12;;;;;;;29.40;19.67;;;2.30;99.90;;;;;;8334542;28;20225;-71
2023/04/09 03:29:22;;;;;;;27.00;18.20;;;2.20;91.80;;;;;;8331682;28;20218;-72
2023/04/09 03:33:24;;;;;;;30.43;20.07;;;2.20;1.00;;;;;;8343199;28;20189;-72
2023/04/09 03:37:37;;;;;;;29.57;19.97;;;2.20;16.40;;;;;;8344772;28;20193;-73
2023/04/09 03:41:38;;;;;;;31.23;21.43;;;2.10;1.00;;;;;;8342093;28;20192;-72
2023/04/09 03:45:39;;;;;;;32.17;20.90;;;2.00;1.00;;;;;;8342863;28;20253;-72
2023/04/09 03:49:43;;;;;;;39.13;23.17;;;2.00;99.90;;;;;;8339150;28;20260;-72
2023/04/09 03:53:44;;;;;;;33.43;21.33;;;1.90;1.00;;;;;;8337272;28;20206;-72
2023/04/09 03:57:45;;;;;;;31.40;20.07;;;1.80;99.90;;;;;;8337495;28;20257;-67
2023/04/09 04:01:47;;;;;;;35.53;21.90;;;1.70;99.90;;;;;;8336403;28;20298;-67
2023/04/09 04:05:51;;;;;;;34.50;21.57;;;1.60;99.90;;;;;;8332655;28;20206;-67
2023/04/09 04:09:52;;;;;;;33.87;20.73;;;1.60;99.90;;;;;;8333727;28;20240;-67
2023/04/09 04:14:05;;;;;;;31.77;22.13;;;1.40;99.90;;;;;;8350919;28;20178;-67
2023/04/09 04:18:06;;;;;;;28.30;19.60;;;1.30;99.90;;;;;;8333720;28;20296;-67
2023/04/09 04:22:07;;;;;;;29.57;18.40;;;1.20;99.90;;;;;;8332505;28;20198;-68
2023/04/09 04:26:09;;;;;;;31.17;19.10;;;1.10;99.90;;;;;;8333133;28;20207;-68
2023/04/09 04:30:13;;;;;;;32.27;20.70;;;1.10;99.90;;;;;;8329422;28;20209;-67
2023/04/09 04:34:14;;;;;;;33.10;19.63;;;1.10;99.90;;;;;;8331091;28;20186;-67
2023/04/09 04:38:15;;;;;;;37.60;23.93;;;1.20;99.90;;;;;;8331639;28;20404;-68
2023/04/09 04:42:16;;;;;;;37.60;22.67;;;1.40;99.90;;;;;;8332667;28;20243;-68
2023/04/09 04:46:19;;;;;;;36.17;22.90;;;1.50;99.90;;;;;;8331266;28;20305;-67
2023/04/09 04:50:20;;;;;;;31.93;19.67;;;1.60;99.90;;;;;;8336745;28;20213;-69
2023/04/09 04:54:21;;;;;;;33.97;22.10;;;1.70;99.90;;;;;;8335150;28;20243;-68
2023/04/09 04:58:22;;;;;;;31.63;21.00;;;1.90;99.90;;;;;;8334778;28;20260;-72
2023/04/09 05:02:23;;;;;;;27.13;17.83;;;2.00;99.90;;;;;;8328062;28;20205;-72
2023/04/09 05:06:26;;;;;;;33.50;21.47;;;2.10;99.90;;;;;;8331812;28;20217;-71
2023/04/09 05:10:27;;;;;;;35.43;22.83;;;2.30;99.90;;;;;;8329496;28;20215;-72
2023/04/09 05:14:28;;;;;;;36.80;22.50;;;2.50;99.90;;;;;;8334601;28;20270;-72
2023/04/09 05:18:29;;;;;;;42.07;25.67;;;2.70;99.90;;;;;;8333574;28;20205;-72
2023/04/09 05:22:30;;;;;;;40.63;26.37;;;2.90;99.90;;;;;;8334507;28;20199;-71
2023/04/09 05:26:32;;;;;;;40.47;25.13;;;3.00;99.90;;;;;;8332500;28;20212;-72
2023/04/09 05:30:33;;;;;;;36.47;24.53;;;3.30;99.90;;;;;;8329322;28;20214;-71
2023/04/09 05:34:34;;;;;;;37.77;23.60;;;3.50;99.90;;;;;;8332696;28;20190;-71
2023/04/09 05:38:35;;;;;;;35.63;24.27;;;3.70;99.90;;;;;;8327136;28;20196;-72
2023/04/09 05:42:36;;;;;;;37.77;24.20;;;3.90;99.90;;;;;;8329701;28;20185;-72
2023/04/09 05:46:38;;;;;;;33.47;23.33;;;4.00;99.90;;;;;;8326433;28;20284;-72
2023/04/09 05:50:38;;;;;;;37.53;24.47;;;4.00;99.90;;;;;;8330878;28;20253;-72
2023/04/09 05:54:39;;;;;;;36.37;25.17;;;4.10;99.90;;;;;;8330152;28;20190;-72
2023/04/09 05:58:41;;;;;;;38.90;24.30;;;4.10;99.90;;;;;;8333438;28;20190;-72
2023/04/09 06:02:42;;;;;;;33.73;23.47;;;4.20;99.90;;;;;;8326359;28;20201;-72
2023/04/09 06:06:43;;;;;;;38.33;23.83;;;4.20;99.90;;;;;;8326013;28;20194;-72
2023/04/09 06:10:47;;;;;;;38.30;26.40;;;4.30;99.90;;;;;;8334913;28;20250;-72
2023/04/09 06:14:48;;;;;;;36.10;26.40;;;4.40;99.90;;;;;;8328073;28;20182;-72
2023/04/09 06:19:07;;;;;;;34.90;25.47;;;4.50;99.90;;;;;;8321519;28;20182;-72
2023/04/09 06:23:08;;;;;;;37.77;24.37;;;4.60;99.90;;;;;;8329021;28;20189;-71
2023/04/09 06:27:21;;;;;;;36.83;25.97;;;4.90;99.90;;;;;;8329387;28;20220;-71
2023/04/09 06:31:22;;;;;;;37.23;24.97;;;5.10;99.90;;;;;;8336283;28;20213;-71
2023/04/09 06:35:23;;;;;;;36.87;24.90;;;5.20;1.00;;;;;;8335946;28;20202;-71
2023/04/09 06:39:24;;;;;;;35.60;23.70;;;5.30;1.00;;;;;;8335061;28;20192;-70
2023/04/09 06:43:28;;;;;;;31.43;22.40;;;5.50;1.00;;;;;;8342559;28;20201;-71
2023/04/09 06:47:47;;;;;;;31.30;23.03;;;5.60;99.90;;;;;;8336546;28;20456;-71
2023/04/09 06:51:48;;;;;;;32.07;23.27;;;5.80;99.90;;;;;;8334581;28;20205;-70
2023/04/09 06:55:50;;;;;;;32.13;22.47;;;5.90;99.90;;;;;;8340983;28;20274;-66
2023/04/09 06:59:51;;;;;;;29.40;21.87;;;6.10;99.90;;;;;;8332563;28;20190;-67
2023/04/09 07:03:52;;;;;;;29.50;22.10;;;6.40;25.00;;;;;;8333496;28;20216;-67
2023/04/09 07:07:53;;;;;;;31.23;22.67;;;6.70;1.00;;;;;;8334637;28;20319;-66
2023/04/09 07:11:54;;;;;;;31.10;22.73;;;6.90;1.00;;;;;;8336648;28;20233;-72
2023/04/09 07:16:03;;;;;;;33.30;23.40;;;6.90;1.00;;;;;;8355961;28;20186;-71
2023/04/09 07:20:04;;;;;;;30.60;23.17;;;6.60;1.00;;;;;;8344169;28;20197;-71
2023/04/09 07:24:06;;;;;;;33.33;23.20;;;6.50;1.00;;;;;;8339813;28;20213;-70
2023/04/09 07:28:07;;;;;;;32.67;23.80;;;6.50;3.50;;;;;;8335411;28;20216;-70
2023/04/09 07:32:08;;;;;;;33.60;21.87;;;6.60;1.00;;;;;;8342245;28;20174;-70
2023/04/09 07:36:09;;;;;;;28.83;21.33;;;6.70;1.00;;;;;;8349609;28;20182;-70
2023/04/09 07:40:13;;;;;;;29.57;21.17;;;6.90;1.00;;;;;;8349885;28;20193;-71
2023/04/09 07:44:14;;;;;;;29.40;20.90;;;7.20;1.00;;;;;;8344593;28;20231;-70
2023/04/09 07:48:15;;;;;;;28.43;20.80;;;7.30;1.00;;;;;;8340127;28;20206;-71
2023/04/09 07:52:16;;;;;;;28.23;19.97;;;7.50;1.00;;;;;;8342109;28;20289;-71
2023/04/09 07:56:17;;;;;;;31.60;21.80;;;7.90;1.00;;;;;;8337246;28;20182;-71
2023/04/09 08:00:24;;;;;;;28.17;20.73;;;8.00;99.90;;;;;;8338639;28;20220;-70
2023/04/09 08:04:28;;;;;;;27.57;20.60;;;8.10;99.90;;;;;;8340189;28;20186;-71
2023/04/09 08:08:32;;;;;;;26.10;19.83;;;7.90;99.90;;;;;;8340759;28;20244;-71
2023/04/09 08:12:33;;;;;;;27.60;20.37;;;7.80;99.90;;;;;;8339473;28;20206;-71
2023/04/09 08:16:34;;;;;;;25.27;19.43;;;7.80;1.00;;;;;;8338980;28;20182;-71
2023/04/09 08:20:36;;;;;;;27.03;19.93;;;7.80;1.00;;;;;;8337968;28;20194;-70
2023/04/09 08:24:38;;;;;;;24.80;19.13;;;7.80;1.00;;;;;;8332545;28;20198;-70
2023/04/09 08:28:40;;;;;;;24.27;18.00;;;8.10;99.90;;;;;;8341984;28;20205;-70
2023/04/09 08:32:45;;;;;;;28.43;19.03;;;8.30;99.90;;;;;;8333367;28;20187;-71
2023/04/09 08:36:48;;;;;;;25.50;18.07;;;8.40;99.90;;;;;;8339955;28;20213;-72
2023/04/09 08:40:49;;;;;;;22.47;17.00;;;8.40;99.90;;;;;;8342235;28;20190;-71
2023/04/09 08:49:11;;;;;;;26.70;18.83;;;8.60;99.90;;;;;;8339821;28;20217;-71
2023/04/09 08:53:14;;;;;;;24.73;18.33;;;8.70;99.90;;;;;;8336630;28;20201;-71
2023/04/09 08:57:16;;;;;;;25.10;19.00;;;8.80;99.90;;;;;;8337806;28;20217;-71
2023/04/09 09:01:28;;;;;;;24.97;17.57;;;8.90;99.90;;;;;;8351532;28;20193;-71
2023/04/09 09:05:43;;;;;;;24.67;19.10;;;9.10;99.90;;;;;;8341681;28;20190;-70
2023/04/09 09:09:55;;;;;;;25.70;18.37;;;8.90;99.90;;;;;;8338229;28;20250;-71
2023/04/09 09:14:01;;;;;;;25.40;18.60;;;8.90;99.90;;;;;;8336705;28;20226;-70
2023/04/09 09:18:02;;;;;;;23.47;17.00;;;8.70;99.90;;;;;;8330354;28;20229;-71
2023/04/09 09:26:23;;;;;;;23.87;18.40;;;8.60;99.90;;;;;;8338725;28;20196;-70
2023/04/09 09:30:28;;;;;;;27.13;18.47;;;8.50;99.90;;;;;;8347989;28;20210;-68
2023/04/09 09:34:29;;;;;;;22.97;17.20;;;8.30;99.90;;;;;;8341279;28;20281;-68
2023/04/09 09:38:31;;;;;;;21.33;16.97;;;8.30;99.90;;;;;;8334967;28;20189;-69
2023/04/09 09:42:32;;;;;;;21.67;16.53;;;8.30;99.90;;;;;;8340387;28;20240;-70
2023/04/09 09:46:38;;;;;;;23.77;18.70;;;8.20;99.90;;;;;;8328009;28;20280;-70
2023/04/09 09:50:42;;;;;;;21.70;16.10;;;8.20;99.90;;;;;;8339715;28;20218;-69
2023/04/09 09:54:50;;;;;;;20.93;16.97;;;8.30;99.90;;;;;;8334605;28;20312;-70
2023/04/09 09:59:02;;;;;;;23.73;16.87;;;8.60;99.90;;;;;;8353721;28;20182;-68
2023/04/09 10:03:20;;;;;;;19.77;15.73;;;8.70;99.90;;;;;;8335978;28;20193;-67
2023/04/09 10:07:21;;;;;;;22.17;15.93;;;8.90;99.90;;;;;;8331927;28;20198;-68
2023/04/09 10:11:22;;;;;;;21.37;16.17;;;8.90;99.90;;;;;;8340815;28;20296;-68
2023/04/09 10:15:25;;;;;;;20.10;16.03;;;8.70;99.90;;;;;;8351903;28;20193;-68
2023/04/09 10:19:26;;;;;;;22.70;15.77;;;8.70;99.90;;;;;;8337357;28;20196;-67
2023/04/09 10:23:48;;;;;;;18.63;14.80;;;8.60;99.90;;;;;;8334524;28;20186;-68
2023/04/09 10:28:02;;;;;;;18.30;15.37;;;8.50;99.90;;;;;;8336896;28;20201;-68
2023/04/09 10:32:10;;;;;;;21.93;16.00;;;8.60;99.90;;;;;;8337125;28;20182;-69
2023/04/09 10:36:19;;;;;;;19.87;15.50;;;8.70;99.90;;;;;;8335045;28;20212;-68
2023/04/09 10:40:20;;;;;;;21.57;16.03;;;8.90;99.90;;;;;;8344686;28;20197;-68
2023/04/09 10:44:23;;;;;;;20.73;16.03;;;9.20;99.90;;;;;;8342198;28;20202;-69
2023/04/09 10:48:25;;;;;;;20.87;15.20;;;9.40;99.90;;;;;;8340609;28;20221;-70
2023/04/09 10:52:30;;;;;;;20.30;15.53;;;9.60;99.90;;;;;;8345769;28;20319;-69
2023/04/09 10:56:32;;;;;;;18.80;14.37;;;9.90;99.90;;;;;;8343593;28;20181;-69
2023/04/09 11:00:42;;;;;;;17.37;13.40;;;10.10;99.90;;;;;;8336882;28;20195;-70
2023/04/09 11:04:56;;;;;;;18.70;15.40;;;10.30;99.90;;;;;;8335979;28;20190;-69
2023/04/09 11:09:01;;;;;;;19.43;14.60;;;10.30;99.90;;;;;;8335539;28;20220;-68
2023/04/09 11:13:06;;;;;;;20.70;15.77;;;10.40;99.90;;;;;;8339483;28;20200;-69
2023/04/09 11:17:07;;;;;;;20.63;16.00;;;10.60;99.90;;;;;;8332636;28;20184;-69
2023/04/09 11:21:12;;;;;;;18.87;15.70;;;10.40;99.90;;;;;;8336090;28;20284;-67
2023/04/09 11:25:25;;;;;;;19.87;15.97;;;10.50;99.90;;;;;;8334132;28;20186;-69
2023/04/09 11:29:26;;;;;;;20.33;16.03;;;10.60;99.90;;;;;;8331967;28;20321;-68
2023/04/09 11:33:39;;;;;;;22.27;16.57;;;10.70;99.90;;;;;;8335651;28;20185;-70
2023/04/09 11:37:41;;;;;;;23.17;16.97;;;10.30;99.90;;;;;;8346350;28;20201;-70
2023/04/09 11:41:43;;;;;;;24.10;17.63;;;10.00;99.90;;;;;;8344240;28;20257;-69
2023/04/09 11:45:53;;;;;;;22.73;17.47;;;10.00;99.90;;;;;;8328737;28;20219;-67
2023/04/09 11:49:54;;;;;;;21.50;16.17;;;10.20;99.90;;;;;;8331929;28;20224;-69
2023/04/09 11:53:58;;;;;;;22.03;16.90;;;10.20;99.90;;;;;;8332347;28;20240;-70
2023/04/09 11:58:00;;;;;;;20.30;16.80;;;10.30;99.90;;;;;;8330466;28;20193;-70
2023/04/09 12:02:07;;;;;;;21.20;16.13;;;10.40;99.90;;;;;;8332138;28;20188;-68
2023/04/09 12:06:08;;;;;;;19.83;16.53;;;10.40;99.90;;;;;;8332306;28;20259;-70
2023/04/09 12:10:10;;;;;;;18.87;16.63;;;10.60;99.90;;;;;;8329054;28;20220;-70
2023/04/09 12:14:18;;;;;;;19.20;15.23;;;10.50;99.90;;;;;;8330453;28;20236;-70
2023/04/09 12:18:22;;;;;;;24.17;16.77;;;10.60;99.90;;;;;;8332867;28;20217;-69
2023/04/09 12:22:23;;;;;;;19.57;15.80;;;10.70;99.90;;;;;;8339251;28;20264;-69
2023/04/09 12:26:37;;;;;;;22.60;17.10;;;10.50;99.90;;;;;;8334527;28;20238;-69
2023/04/09 12:30:39;;;;;;;21.30;16.57;;;10.30;99.90;;;;;;8325267;28;20213;-69
2023/04/09 12:34:48;;;;;;;20.93;16.63;;;10.40;99.90;;;;;;8328973;28;20276;-69
2023/04/09 12:38:50;;;;;;;20.57;16.10;;;10.40;99.90;;;;;;8333389;28;20194;-69
2023/04/09 12:42:52;;;;;;;20.27;16.17;;;10.40;99.90;;;;;;8331100;28;20198;-70
2023/04/09 12:47:00;;;;;;;18.07;15.40;;;10.50;99.90;;;;;;8334215;28;20204;-69
2023/04/09 12:51:01;;;;;;;20.77;16.83;;;10.60;99.90;;;;;;8352388;28;20247;-68
2023/04/09 12:55:03;;;;;;;23.10;16.20;;;10.80;99.90;;;;;;8333421;28;20186;-68
2023/04/09 12:59:04;;;;;;;20.57;16.17;;;10.70;99.90;;;;;;8330576;28;20196;-68
2023/04/09 13:03:05;;;;;;;19.90;15.33;;;10.80;99.90;;;;;;8327631;28;20284;-69
2023/04/09 13:07:10;;;;;;;24.47;16.63;;;10.80;99.90;;;;;;8332909;28;20199;-69
2023/04/09 13:11:12;;;;;;;18.00;15.33;;;10.80;99.90;;;;;;8332921;28;20280;-69
2023/04/09 13:15:13;;;;;;;20.73;15.73;;;10.90;99.90;;;;;;8339850;28;20255;-69
2023/04/09 13:19:14;;;;;;;19.77;15.77;;;10.90;99.90;;;;;;8351478;28;20285;-69
2023/04/09 13:23:18;;;;;;;18.33;15.17;;;10.90;99.90;;;;;;8328374;28;20182;-69
2023/04/09 13:27:19;;;;;;;20.17;16.07;;;10.90;99.90;;;;;;8325741;28;20186;-69
2023/04/09 13:31:20;;;;;;;20.07;15.73;;;10.90;99.90;;;;;;8327232;28;20186;-70
2023/04/09 13:35:21;;;;;;;20.70;15.63;;;11.00;99.90;;;;;;8333537;28;20284;-69
2023/04/09 13:39:22;;;;;;;22.70;16.80;;;11.00;99.90;;;;;;8340843;28;20199;-69
2023/04/09 13:43:26;;;;;;;22.83;17.40;;;11.00;99.90;;;;;;8334065;28;20402;-69
2023/04/09 13:47:27;;;;;;;21.20;17.07;;;11.10;99.90;;;;;;8329068;28;20268;-68
2023/04/09 13:51:28;;;;;;;24.77;18.73;;;11.10;99.90;;;;;;8335835;28;20264;-69
2023/04/09 13:55:30;;;;;;;24.43;18.13;;;10.90;99.90;;;;;;8329873;28;20269;-69
2023/04/09 13:59:32;;;;;;;22.80;18.23;;;10.70;99.90;;;;;;8337461;28;20192;-68
2023/04/09 14:03:33;;;;;;;22.07;17.50;;;10.50;99.90;;;;;;8338164;28;20188;-69
2023/04/09 14:07:34;;;;;;;27.10;18.70;;;10.20;99.90;;;;;;8336636;28;20244;-69
2023/04/09 14:11:35;;;;;;;24.37;17.27;;;10.00;99.90;;;;;;8331958;28;20291;-69
2023/04/09 14:15:36;;;;;;;24.40;18.33;;;9.90;1.00;;;;;;8331872;28;20176;-69
2023/04/09 14:19:38;;;;;;;24.87;18.60;;;9.90;99.90;;;;;;8333652;28;20191;-69
2023/04/09 14:23:42;;;;;;;24.93;18.23;;;9.80;99.90;;;;;;8336916;28;20212;-69
2023/04/09 14:27:43;;;;;;;25.67;18.97;;;9.70;1.00;;;;;;8329846;28;20208;-70
2023/04/09 14:31:45;;;;;;;23.43;18.13;;;9.70;1.00;;;;;;8335918;28;20192;-72
2023/04/09 14:35:46;;;;;;;24.80;18.33;;;9.60;1.00;;;;;;8320131;28;20222;-71
2023/04/09 14:39:51;;;;;;;25.57;19.80;;;9.50;1.00;;;;;;8319532;28;20191;-72
2023/04/09 14:43:55;;;;;;;22.60;18.17;;;9.40;1.00;;;;;;8319914;28;20188;-72
2023/04/09 14:47:56;;;;;;;30.20;20.80;;;9.40;1.00;;;;;;8322575;28;20210;-71
2023/04/09 14:52:00;;;;;;;23.97;18.37;;;9.40;23.60;;;;;;8323837;28;20293;-71
2023/04/09 15:01:29;;;;;;;24.97;18.07;;;9.40;1.00;;;;;;8273911;28;20231;-78
2023/04/09 15:06:16;;;;;;;28.27;19.10;;;9.40;1.00;;;;;;8272676;28;20262;-78
2023/04/09 15:10:24;;;;;;;25.33;19.03;;;9.40;1.00;;;;;;8239555;28;20275;-78
2023/04/09 15:14:54;;;;;;;26.50;19.90;;;9.40;1.00;;;;;;8272185;28;20181;-78
2023/04/09 15:19:17;;;;;;;28.77;19.43;;;9.50;1.00;;;;;;8267810;28;20310;-76
2023/04/09 15:23:25;;;;;;;24.80;20.13;;;9.60;1.00;;;;;;8272976;28;20192;-80
2023/04/09 15:27:36;;;;;;;;;;;;;;;;;;;;;
2023/04/09 15:31:44;;;;;;;25.43;19.60;;;9.70;1.00;;;;;;8279464;28;20208;-81
2023/04/09 15:36:11;;;;;;;22.47;17.70;;;9.90;1.00;;;;;;8277492;28;20233;-80
2023/04/09 15:40:36;;;;;;;19.27;15.00;;;10.10;1.00;;;;;;8277822;28;20198;-81
2023/04/09 15:44:53;;;;;;;22.93;17.93;;;10.30;1.00;;;;;;8293888;28;20218;-81
2023/04/09 15:54:11;;;;;;;20.13;15.50;;;10.40;99.90;;;;;;8279939;28;20208;-81
2023/04/09 15:58:18;;;;;;;18.27;13.67;;;10.50;99.90;;;;;;8351496;23;20256;-73
2023/04/09 16:02:22;;;;;;;15.83;12.93;;;10.60;99.90;;;;;;8332580;28;20183;-70
2023/04/09 16:06:26;;;;;;;16.87;12.43;;;10.70;99.90;;;;;;8331270;28;20254;-70
2023/04/09 16:10:28;;;;;;;15.17;12.53;;;10.80;99.90;;;;;;8325469;28;20269;-70
2023/04/09 16:14:32;;;;;;;19.63;15.73;;;10.80;99.90;;;;;;8327877;28;20210;-69
2023/04/09 16:18:39;;;;;;;22.20;15.73;;;10.90;99.90;;;;;;8330210;28;20197;-68
2023/04/09 16:22:40;;;;;;;17.67;13.63;;;10.80;99.90;;;;;;8332432;28;20198;-70
2023/04/09 16:27:12;;;;;;;17.43;14.07;;;10.80;99.90;;;;;;8343096;28;20289;-69
2023/04/09 16:31:14;;;;;;;18.60;15.30;;;10.80;99.90;;;;;;8329263;28;20223;-69
2023/04/09 16:35:18;;;;;;;21.20;15.30;;;10.80;99.90;;;;;;8329221;28;20187;-69
2023/04/09 16:39:22;;;;;;;18.57;14.67;;;10.80;99.90;;;;;;8327054;28;20216;-70
2023/04/09 16:43:24;;;;;;;17.83;14.70;;;10.70;1.00;;;;;;8327659;28;20189;-72
2023/04/09 16:47:28;;;;;;;17.50;14.43;;;10.70;1.00;;;;;;8323924;28;20267;-69
2023/04/09 16:51:29;;;;;;;17.87;14.03;;;10.60;1.00;;;;;;8330635;28;20182;-69
2023/04/09 16:55:36;;;;;;;18.00;14.13;;;10.50;1.00;;;;;;8336579;28;20213;-72
2023/04/09 16:59:41;;;;;;;16.77;13.70;;;10.30;1.00;;;;;;8330043;28;20190;-68
2023/04/09 17:03:42;;;;;;;17.97;14.30;;;10.20;1.00;;;;;;8327969;28;20189;-71
2023/04/09 17:07:43;;;;;;;16.10;12.80;;;10.10;1.00;;;;;;8326017;28;20210;-70
2023/04/09 17:11:44;;;;;;;17.53;13.40;;;9.90;1.00;;;;;;8323840;28;20276;-70
2023/04/09 17:15:48;;;;;;;20.33;13.97;;;9.80;71.60;;;;;;8330122;28;20182;-70
2023/04/09 17:19:50;;;;;;;16.83;13.77;;;9.70;93.00;;;;;;8323483;28;20193;-71
2023/04/09 17:23:50;;;;;;;16.90;13.50;;;9.60;99.90;;;;;;8325812;28;20311;-71
2023/04/09 17:28:06;;;;;;;15.33;12.53;;;9.60;99.90;;;;;;8330926;28;20208;-71
2023/04/09 17:32:07;;;;;;;15.13;13.27;;;9.50;99.90;;;;;;8311105;28;20224;-70
2023/04/09 17:36:11;;;;;;;16.63;13.13;;;9.40;99.90;;;;;;8325469;28;20200;-66
2023/04/09 17:40:17;;;;;;;15.17;12.57;;;9.30;99.90;;;;;;8315612;28;20196;-65
2023/04/09 17:44:19;;;;;;;14.37;12.20;;;9.20;99.90;;;;;;8319056;28;20248;-66
2023/04/09 17:48:20;;;;;;;15.30;12.17;;;9.10;99.90;;;;;;8326985;28;20231;-66
2023/04/09 17:52:23;;;;;;;16.30;12.30;;;9.00;99.90;;;;;;8305442;28;20255;-65
2023/04/09 17:56:25;;;;;;;13.90;11.33;;;9.00;99.90;;;;;;8332887;28;20224;-66
2023/04/09 18:00:52;;;;;;;;;;;;;;;;;;;;;
2023/04/09 18:04:57;;;;;;;13.00;11.27;;;8.80;1.00;;;;;;8250414;28;20207;-66
2023/04/09 18:09:03;;;;;;;16.80;12.57;;;8.80;1.00;;;;;;8298169;28;20271;-67
2023/04/09 18:13:22;;;;;;;17.53;13.23;;;8.70;1.00;;;;;;8328087;28;20271;-67
2023/04/09 18:17:25;;;;;;;18.00;13.53;;;8.70;1.00;;;;;;8324758;28;20192;-70
2023/04/09 18:21:35;;;;;;;17.03;12.87;;;8.60;1.00;;;;;;8328697;28;20184;-71
2023/04/09 18:25:36;;;;;;;16.33;13.43;;;8.60;1.00;;;;;;8329361;28;20194;-70
2023/04/09 18:29:37;;;;;;;18.40;14.03;;;8.60;1.00;;;;;;8324982;28;20213;-65
2023/04/09 18:34:03;;;;;;;18.93;14.47;;;8.50;1.00;;;;;;8326540;28;20202;-66
2023/04/09 18:38:04;;;;;;;18.23;15.37;;;8.50;1.00;;;;;;8327475;28;20293;-66
2023/04/09 18:42:05;;;;;;;21.03;14.53;;;8.50;1.00;;;;;;8325395;28;20211;-67
2023/04/09 18:46:15;;;;;;;17.47;13.80;;;8.50;1.00;;;;;;8325328;28;20257;-66
2023/04/09 18:50:22;;;;;;;17.10;13.20;;;8.40;1.00;;;;;;8319471;28;20214;-66
2023/04/09 18:54:27;;;;;;;19.67;14.23;;;8.40;1.00;;;;;;8319780;28;20304;-66
2023/04/09 18:58:34;;;;;;;16.17;13.50;;;8.40;1.00;;;;;;8321178;28;20223;-67
2023/04/09 19:03:31;;;;;;;18.50;14.47;;;8.40;1.00;;;;;;8326420;28;20197;-66
2023/04/09 19:07:36;;;;;;;19.50;15.20;;;8.30;13.90;;;;;;8316749;28;20260;-72
2023/04/09 19:11:40;;;;;;;20.70;15.33;;;8.30;19.70;;;;;;8316247;28;20190;-70
2023/04/09 19:15:47;;;;;;;17.70;15.30;;;8.30;5.70;;;;;;8333740;28;20317;-72
2023/04/09 19:24:20;;;;;;;21.83;17.07;;;8.30;1.00;;;;;;8324208;28;20206;-70
2023/04/09 19:28:34;;;;;;;22.23;17.20;;;8.30;1.00;;;;;;8337059;28;20250;-72
2023/04/09 19:32:45;;;;;;;23.30;18.00;;;8.30;1.00;;;;;;8333953;28;20217;-70
2023/04/09 19:36:46;;;;;;;23.77;17.97;;;8.30;1.00;;;;;;8336359;28;20287;-71
2023/04/09 19:40:47;;;;;;;25.73;18.73;;;8.30;1.00;;;;;;8334872;28;20242;-71
2023/04/09 19:44:48;;;;;;;21.67;16.57;;;8.30;1.00;;;;;;8333331;28;20241;-71
2023/04/09 19:48:52;;;;;;;22.53;17.97;;;8.20;1.00;;;;;;8329859;28;20220;-67
2023/04/09 19:52:55;;;;;;;18.57;15.07;;;8.20;1.00;;;;;;8331166;28;20186;-67
2023/04/09 19:56:56;;;;;;;19.13;14.73;;;8.20;1.00;;;;;;8340657;28;20232;-67
2023/04/09 20:00:57;;;;;;;19.70;15.43;;;8.20;1.00;;;;;;8333461;28;20251;-67
2023/04/09 20:04:58;;;;;;;23.67;16.60;;;8.20;1.00;;;;;;8338001;28;20195;-67
2023/04/09 20:09:02;;;;;;;22.57;17.67;;;8.20;1.00;;;;;;8324610;28;20205;-68
2023/04/09 20:13:04;;;;;;;24.27;18.90;;;8.20;1.00;;;;;;8328673;28;20199;-67
2023/04/09 20:17:07;;;;;;;25.30;19.60;;;8.10;1.00;;;;;;8331740;28;20186;-68
2023/04/09 20:21:12;;;;;;;25.20;19.90;;;8.10;1.00;;;;;;8318482;28;20191;-68
2023/04/09 20:25:14;;;;;;;25.83;18.73;;;8.10;1.00;;;;;;8318266;28;20221;-69
2023/04/09 20:29:14;;;;;;;26.00;18.53;;;8.00;17.70;;;;;;8328940;28;20222;-70
2023/04/09 20:33:18;;;;;;;26.13;18.97;;;8.00;75.20;;;;;;8334293;28;20194;-71
2023/04/09 20:37:23;;;;;;;24.63;18.43;;;8.00;99.90;;;;;;8332930;28;20214;-71
2023/04/09 20:41:28;;;;;;;23.27;18.70;;;7.90;99.90;;;;;;8331869;28;20195;-71
2023/04/09 20:45:29;;;;;;;25.33;18.87;;;7.90;99.90;;;;;;8331437;28;20201;-71
2023/04/09 20:49:30;;;;;;;25.93;18.37;;;7.80;99.90;;;;;;8333223;28;20214;-71
2023/04/09 20:53:31;;;;;;;23.07;17.17;;;7.70;99.90;;;;;;8336031;28;20262;-70
2023/04/09 20:57:32;;;;;;;24.90;17.47;;;7.60;99.90;;;;;;8316438;28;20236;-69
2023/04/09 21:01:34;;;;;;;24.20;17.20;;;7.60;99.90;;;;;;8332983;28;20213;-71
2023/04/09 21:05:35;;;;;;;21.63;16.83;;;7.50;99.90;;;;;;8328717;28;20210;-71
2023/04/09 21:09:37;;;;;;;21.47;15.73;;;7.40;1.00;;;;;;8329531;28;20217;-71
2023/04/09 21:13:38;;;;;;;20.00;15.73;;;7.40;1.00;;;;;;8331320;28;20261;-70
2023/04/09 21:17:39;;;;;;;25.73;19.07;;;7.30;19.20;;;;;;8329794;28;20190;-70
2023/04/09 21:21:40;;;;;;;36.47;24.07;;;7.20;99.90;;;;;;8321779;28;20193;-66
2023/04/09 21:25:42;;;;;;;56.67;29.37;;;7.20;99.90;;;;;;8321419;28;20197;-70